sensor_id;sensor_type;location;lat;lon;timestamp;temperature;humidity
19292;DHT22;9779;51.756;7.450;2023-07-29T00:01:40;20.50;99.90
19292;DHT22;9779;51.756;7.450;2023-07-29T00:04:16;20.50;99.90
19292;DHT22;9779;51.756;7.450;2023-07-29T00:06:45;20.50;99.90
19292;DHT22;9779;51.756;7.450;2023-07-29T00:09:10;20.50;99.90
19292;DHT22;9779;51.756;7.450;2023-07-29T00:11:36;20.50;99.90
19292;DHT22;9779;51.756;7.450;2023-07-29T00:14:01;20.50;99.90
19292;DHT22;9779;51.756;7.450;2023-07-29T00:16:27;20.40;99.90
19292;DHT22;9779;51.756;7.450;2023-07-29T00:18:53;20.40;99.90
19292;DHT22;9779;51.756;7.450;2023-07-29T00:21:21;20.40;99.90
19292;DHT22;9779;51.756;7.450;2023-07-29T00:23:47;20.40;99.90
19292;DHT22;9779;51.756;7.450;2023-07-29T00:26:12;20.30;99.90
19292;DHT22;9779;51.756;7.450;2023-07-29T00:28:38;20.30;99.90
19292;DHT22;9779;51.756;7.450;2023-07-29T00:31:04;20.30;99.90
19292;DHT22;9779;51.756;7.450;2023-07-29T00:33:32;20.20;99.90
19292;DHT22;9779;51.756;7.450;2023-07-29T00:35:58;20.20;99.90
19292;DHT22;9779;51.756;7.450;2023-07-29T00:38:27;20.20;99.90
19292;DHT22;9779;51.756;7.450;2023-07-29T00:40:59;20.20;99.90
19292;DHT22;9779;51.756;7.450;2023-07-29T00:43:25;20.20;99.90
19292;DHT22;9779;51.756;7.450;2023-07-29T00:45:51;20.10;99.90
19292;DHT22;9779;51.756;7.450;2023-07-29T00:48:20;20.10;99.90
19292;DHT22;9779;51.756;7.450;2023-07-29T00:50:46;20.10;99.90
19292;DHT22;9779;51.756;7.450;2023-07-29T00:53:12;20.10;99.90
19292;DHT22;9779;51.756;7.450;2023-07-29T00:55:37;20.10;99.90
19292;DHT22;9779;51.756;7.450;2023-07-29T00:58:03;20.00;99.90
19292;DHT22;9779;51.756;7.450;2023-07-29T01:00:29;20.00;99.90
19292;DHT22;9779;51.756;7.450;2023-07-29T01:02:58;20.00;99.90
19292;DHT22;9779;51.756;7.450;2023-07-29T01:05:29;20.00;99.90
19292;DHT22;9779;51.756;7.450;2023-07-29T01:08:21;20.00;99.90
19292;DHT22;9779;51.756;7.450;2023-07-29T01:11:09;20.00;99.90
19292;DHT22;9779;51.756;7.450;2023-07-29T01:14:19;19.90;99.90
19292;DHT22;9779;51.756;7.450;2023-07-29T01:16:52;20.00;99.90
19292;DHT22;9779;51.756;7.450;2023-07-29T01:22:34;19.90;99.90
19292;DHT22;9779;51.756;7.450;2023-07-29T01:28:27;19.90;99.90
19292;DHT22;9779;51.756;7.450;2023-07-29T01:33:34;19.80;99.90
19292;DHT22;9779;51.756;7.450;2023-07-29T01:36:29;19.80;99.90
19292;DHT22;9779;51.756;7.450;2023-07-29T01:38:57;19.80;99.90
19292;DHT22;9779;51.756;7.450;2023-07-29T01:41:24;19.80;99.90
19292;DHT22;9779;51.756;7.450;2023-07-29T01:43:50;19.70;99.90
19292;DHT22;9779;51.756;7.450;2023-07-29T01:46:17;19.70;99.90
19292;DHT22;9779;51.756;7.450;2023-07-29T01:48:42;19.70;99.90
19292;DHT22;9779;51.756;7.450;2023-07-29T01:51:12;19.70;99.90
19292;DHT22;9779;51.756;7.450;2023-07-29T01:53:38;19.60;99.90
19292;DHT22;9779;51.756;7.450;2023-07-29T01:56:03;19.70;99.90
19292;DHT22;9779;51.756;7.450;2023-07-29T01:58:29;19.60;99.90
19292;DHT22;9779;51.756;7.450;2023-07-29T02:00:55;19.60;99.90
19292;DHT22;9779;51.756;7.450;2023-07-29T02:03:20;19.70;99.90
19292;DHT22;9779;51.756;7.450;2023-07-29T02:05:46;19.70;99.90
19292;DHT22;9779;51.756;7.450;2023-07-29T02:08:11;19.70;99.90
19292;DHT22;9779;51.756;7.450;2023-07-29T02:10:37;19.60;99.90
19292;DHT22;9779;51.756;7.450;2023-07-29T02:13:05;19.70;99.90
19292;DHT22;9779;51.756;7.450;2023-07-29T02:15:33;19.70;99.90
19292;DHT22;9779;51.756;7.450;2023-07-29T02:17:59;19.70;99.90
19292;DHT22;9779;51.756;7.450;2023-07-29T02:20:24;19.70;99.90
19292;DHT22;9779;51.756;7.450;2023-07-29T02:22:50;19.70;99.90
19292;DHT22;9779;51.756;7.450;2023-07-29T02:25:16;19.60;99.90
19292;DHT22;9779;51.756;7.450;2023-07-29T02:27:41;19.60;99.90
19292;DHT22;9779;51.756;7.450;2023-07-29T02:30:09;19.70;99.90
19292;DHT22;9779;51.756;7.450;2023-07-29T02:32:35;19.60;99.90
19292;DHT22;9779;51.756;7.450;2023-07-29T02:35:01;19.60;99.90
19292;DHT22;9779;51.756;7.450;2023-07-29T02:37:26;19.60;99.90
19292;DHT22;9779;51.756;7.450;2023-07-29T02:39:52;19.60;99.90
19292;DHT22;9779;51.756;7.450;2023-07-29T02:42:23;19.60;99.90
19292;DHT22;9779;51.756;7.450;2023-07-29T02:44:49;19.60;99.90
19292;DHT22;9779;51.756;7.450;2023-07-29T02:47:14;19.60;99.90
19292;DHT22;9779;51.756;7.450;2023-07-29T02:49:40;19.50;99.90
19292;DHT22;9779;51.756;7.450;2023-07-29T02:52:12;19.50;99.90
19292;DHT22;9779;51.756;7.450;2023-07-29T02:54:37;19.60;99.90
19292;DHT22;9779;51.756;7.450;2023-07-29T02:57:03;19.50;99.90
19292;DHT22;9779;51.756;7.450;2023-07-29T02:59:35;19.50;99.90
19292;DHT22;9779;51.756;7.450;2023-07-29T03:02:01;19.50;99.90
19292;DHT22;9779;51.756;7.450;2023-07-29T03:04:26;19.50;99.90
19292;DHT22;9779;51.756;7.450;2023-07-29T03:06:52;19.50;99.90
19292;DHT22;9779;51.756;7.450;2023-07-29T03:09:24;19.50;99.90
19292;DHT22;9779;51.756;7.450;2023-07-29T03:11:50;19.50;99.90
19292;DHT22;9779;51.756;7.450;2023-07-29T03:14:17;19.50;99.90
19292;DHT22;9779;51.756;7.450;2023-07-29T03:16:45;19.50;99.90
19292;DHT22;9779;51.756;7.450;2023-07-29T03:19:12;19.50;99.90
19292;DHT22;9779;51.756;7.450;2023-07-29T03:21:43;19.50;99.90
19292;DHT22;9779;51.756;7.450;2023-07-29T03:24:09;19.40;99.90
19292;DHT22;9779;51.756;7.450;2023-07-29T03:26:35;19.40;99.90
19292;DHT22;9779;51.756;7.450;2023-07-29T03:29:00;19.40;99.90
19292;DHT22;9779;51.756;7.450;2023-07-29T03:31:32;19.40;99.90
19292;DHT22;9779;51.756;7.450;2023-07-29T03:33:57;19.40;99.90
19292;DHT22;9779;51.756;7.450;2023-07-29T03:36:23;19.40;99.90
19292;DHT22;9779;51.756;7.450;2023-07-29T03:38:50;19.40;99.90
19292;DHT22;9779;51.756;7.450;2023-07-29T03:41:16;19.40;99.90
19292;DHT22;9779;51.756;7.450;2023-07-29T03:43:42;19.40;99.90
19292;DHT22;9779;51.756;7.450;2023-07-29T03:46:13;19.40;99.90
19292;DHT22;9779;51.756;7.450;2023-07-29T03:48:39;19.40;99.90
19292;DHT22;9779;51.756;7.450;2023-07-29T03:51:04;19.40;99.90
19292;DHT22;9779;51.756;7.450;2023-07-29T03:53:30;19.40;99.90
19292;DHT22;9779;51.756;7.450;2023-07-29T03:55:58;19.40;99.90
19292;DHT22;9779;51.756;7.450;2023-07-29T03:58:24;19.30;99.90
19292;DHT22;9779;51.756;7.450;2023-07-29T04:00:49;19.40;99.90
19292;DHT22;9779;51.756;7.450;2023-07-29T04:03:18;19.40;99.90
19292;DHT22;9779;51.756;7.450;2023-07-29T04:05:44;19.40;99.90
19292;DHT22;9779;51.756;7.450;2023-07-29T04:08:09;19.40;99.90
19292;DHT22;9779;51.756;7.450;2023-07-29T04:10:35;19.30;99.90
19292;DHT22;9779;51.756;7.450;2023-07-29T04:13:01;19.30;99.90
19292;DHT22;9779;51.756;7.450;2023-07-29T04:15:29;19.30;99.90
19292;DHT22;9779;51.756;7.450;2023-07-29T04:17:55;19.30;99.90
19292;DHT22;9779;51.756;7.450;2023-07-29T04:20:23;19.30;99.90
19292;DHT22;9779;51.756;7.450;2023-07-29T04:22:49;19.30;99.90
19292;DHT22;9779;51.756;7.450;2023-07-29T04:25:20;19.20;99.90
19292;DHT22;9779;51.756;7.450;2023-07-29T04:27:46;19.20;99.90
19292;DHT22;9779;51.756;7.450;2023-07-29T04:30:12;19.30;99.90
19292;DHT22;9779;51.756;7.450;2023-07-29T04:32:37;19.30;99.90
19292;DHT22;9779;51.756;7.450;2023-07-29T04:35:06;19.30;99.90
19292;DHT22;9779;51.756;7.450;2023-07-29T04:37:32;19.30;99.90
19292;DHT22;9779;51.756;7.450;2023-07-29T04:39:57;19.30;99.90
19292;DHT22;9779;51.756;7.450;2023-07-29T04:42:23;19.30;99.90
19292;DHT22;9779;51.756;7.450;2023-07-29T04:44:49;19.30;99.90
19292;DHT22;9779;51.756;7.450;2023-07-29T04:47:20;19.30;99.90
19292;DHT22;9779;51.756;7.450;2023-07-29T04:49:48;19.30;99.90
19292;DHT22;9779;51.756;7.450;2023-07-29T04:52:20;19.30;99.90
19292;DHT22;9779;51.756;7.450;2023-07-29T04:54:47;19.30;99.90
19292;DHT22;9779;51.756;7.450;2023-07-29T04:57:12;19.40;99.90
19292;DHT22;9779;51.756;7.450;2023-07-29T04:59:38;19.40;99.90
19292;DHT22;9779;51.756;7.450;2023-07-29T05:02:06;19.30;99.90
19292;DHT22;9779;51.756;7.450;2023-07-29T05:04:32;19.40;99.90
19292;DHT22;9779;51.756;7.450;2023-07-29T05:06:58;19.30;99.90
19292;DHT22;9779;51.756;7.450;2023-07-29T05:09:23;19.30;99.90
19292;DHT22;9779;51.756;7.450;2023-07-29T05:11:49;19.40;99.90
19292;DHT22;9779;51.756;7.450;2023-07-29T05:14:18;19.30;99.90
19292;DHT22;9779;51.756;7.450;2023-07-29T05:16:44;19.30;99.90
19292;DHT22;9779;51.756;7.450;2023-07-29T05:19:10;19.30;99.90
19292;DHT22;9779;51.756;7.450;2023-07-29T05:21:37;19.30;99.90
19292;DHT22;9779;51.756;7.450;2023-07-29T05:24:07;19.30;99.90
19292;DHT22;9779;51.756;7.450;2023-07-29T05:26:32;19.30;99.90
19292;DHT22;9779;51.756;7.450;2023-07-29T05:28:58;19.20;99.90
19292;DHT22;9779;51.756;7.450;2023-07-29T05:31:24;19.30;99.90
19292;DHT22;9779;51.756;7.450;2023-07-29T05:33:49;19.20;99.90
19292;DHT22;9779;51.756;7.450;2023-07-29T05:36:15;19.20;99.90
19292;DHT22;9779;51.756;7.450;2023-07-29T05:38:46;19.20;99.90
19292;DHT22;9779;51.756;7.450;2023-07-29T05:41:12;19.20;99.90
19292;DHT22;9779;51.756;7.450;2023-07-29T05:43:37;19.20;99.90
19292;DHT22;9779;51.756;7.450;2023-07-29T05:46:03;19.20;99.90
19292;DHT22;9779;51.756;7.450;2023-07-29T05:48:32;19.20;99.90
19292;DHT22;9779;51.756;7.450;2023-07-29T05:50:58;19.20;99.90
19292;DHT22;9779;51.756;7.450;2023-07-29T05:53:23;19.30;99.90
19292;DHT22;9779;51.756;7.450;2023-07-29T05:55:49;19.30;99.90
19292;DHT22;9779;51.756;7.450;2023-07-29T05:58:15;19.30;99.90
19292;DHT22;9779;51.756;7.450;2023-07-29T06:00:40;19.40;99.90
19292;DHT22;9779;51.756;7.450;2023-07-29T06:03:09;19.40;99.90
19292;DHT22;9779;51.756;7.450;2023-07-29T06:05:37;19.30;99.90
19292;DHT22;9779;51.756;7.450;2023-07-29T06:08:02;19.30;99.90
19292;DHT22;9779;51.756;7.450;2023-07-29T06:10:34;19.30;99.90
19292;DHT22;9779;51.756;7.450;2023-07-29T06:13:00;19.30;99.90
19292;DHT22;9779;51.756;7.450;2023-07-29T06:15:25;19.20;99.90
19292;DHT22;9779;51.756;7.450;2023-07-29T06:17:51;19.20;99.90
19292;DHT22;9779;51.756;7.450;2023-07-29T06:20:20;19.20;99.90
19292;DHT22;9779;51.756;7.450;2023-07-29T06:22:45;19.20;99.90
19292;DHT22;9779;51.756;7.450;2023-07-29T06:25:11;19.20;99.90
19292;DHT22;9779;51.756;7.450;2023-07-29T06:27:36;19.20;99.90
19292;DHT22;9779;51.756;7.450;2023-07-29T06:30:02;19.10;99.90
19292;DHT22;9779;51.756;7.450;2023-07-29T06:32:28;19.20;99.90
19292;DHT22;9779;51.756;7.450;2023-07-29T06:34:53;19.20;99.90
19292;DHT22;9779;51.756;7.450;2023-07-29T06:37:20;19.20;99.90
19292;DHT22;9779;51.756;7.450;2023-07-29T06:39:54;19.20;99.90
19292;DHT22;9779;51.756;7.450;2023-07-29T06:42:20;19.20;99.90
19292;DHT22;9779;51.756;7.450;2023-07-29T06:44:51;19.10;99.90
19292;DHT22;9779;51.756;7.450;2023-07-29T06:47:17;19.20;99.90
19292;DHT22;9779;51.756;7.450;2023-07-29T06:49:42;19.20;99.90
19292;DHT22;9779;51.756;7.450;2023-07-29T06:52:08;19.10;99.90
19292;DHT22;9779;51.756;7.450;2023-07-29T06:54:36;19.10;99.90
19292;DHT22;9779;51.756;7.450;2023-07-29T06:57:02;19.20;99.90
19292;DHT22;9779;51.756;7.450;2023-07-29T06:59:28;19.20;99.90
19292;DHT22;9779;51.756;7.450;2023-07-29T07:01:53;19.20;99.90
19292;DHT22;9779;51.756;7.450;2023-07-29T07:04:19;19.20;99.90
19292;DHT22;9779;51.756;7.450;2023-07-29T07:06:45;19.10;99.90
19292;DHT22;9779;51.756;7.450;2023-07-29T07:09:16;19.10;99.90
19292;DHT22;9779;51.756;7.450;2023-07-29T07:11:42;19.10;99.90
19292;DHT22;9779;51.756;7.450;2023-07-29T07:14:07;19.10;99.90
19292;DHT22;9779;51.756;7.450;2023-07-29T07:16:39;19.00;99.90
19292;DHT22;9779;51.756;7.450;2023-07-29T07:19:05;19.00;99.90
19292;DHT22;9779;51.756;7.450;2023-07-29T07:21:30;19.00;99.90
19292;DHT22;9779;51.756;7.450;2023-07-29T07:24:04;19.00;48.80
19292;DHT22;9779;51.756;7.450;2023-07-29T07:26:29;19.00;1.00
19292;DHT22;9779;51.756;7.450;2023-07-29T07:28:55;19.10;10.00
19292;DHT22;9779;51.756;7.450;2023-07-29T07:31:21;19.00;1.00
19292;DHT22;9779;51.756;7.450;2023-07-29T07:33:53;19.10;1.00
19292;DHT22;9779;51.756;7.450;2023-07-29T07:36:18;19.10;1.00
19292;DHT22;9779;51.756;7.450;2023-07-29T07:38:44;19.20;28.70
19292;DHT22;9779;51.756;7.450;2023-07-29T07:41:13;19.20;23.50
19292;DHT22;9779;51.756;7.450;2023-07-29T07:43:38;19.30;15.60
19292;DHT22;9779;51.756;7.450;2023-07-29T07:46:05;19.30;17.20
19292;DHT22;9779;51.756;7.450;2023-07-29T07:48:30;19.30;1.00
19292;DHT22;9779;51.756;7.450;2023-07-29T07:51:13;19.30;1.00
19292;DHT22;9779;51.756;7.450;2023-07-29T07:53:39;19.40;1.00
19292;DHT22;9779;51.756;7.450;2023-07-29T07:56:05;19.60;1.00
19292;DHT22;9779;51.756;7.450;2023-07-29T07:58:31;19.70;1.00
19292;DHT22;9779;51.756;7.450;2023-07-29T08:01:07;19.80;1.00
19292;DHT22;9779;51.756;7.450;2023-07-29T08:03:37;19.80;1.00
19292;DHT22;9779;51.756;7.450;2023-07-29T08:06:04;19.90;1.00
19292;DHT22;9779;51.756;7.450;2023-07-29T08:08:29;20.00;1.00
19292;DHT22;9779;51.756;7.450;2023-07-29T08:10:56;20.00;1.00
19292;DHT22;9779;51.756;7.450;2023-07-29T08:13:25;20.20;1.00
19292;DHT22;9779;51.756;7.450;2023-07-29T08:15:52;20.30;1.00
19292;DHT22;9779;51.756;7.450;2023-07-29T08:18:18;20.30;1.00
19292;DHT22;9779;51.756;7.450;2023-07-29T08:20:55;20.20;1.00
19292;DHT22;9779;51.756;7.450;2023-07-29T08:23:26;20.30;1.00
19292;DHT22;9779;51.756;7.450;2023-07-29T08:25:56;20.30;1.00
19292;DHT22;9779;51.756;7.450;2023-07-29T08:28:33;20.40;1.00
19292;DHT22;9779;51.756;7.450;2023-07-29T08:31:05;20.40;1.00
19292;DHT22;9779;51.756;7.450;2023-07-29T08:33:31;20.40;1.00
19292;DHT22;9779;51.756;7.450;2023-07-29T08:36:02;20.40;1.00
19292;DHT22;9779;51.756;7.450;2023-07-29T08:38:28;20.40;1.00
19292;DHT22;9779;51.756;7.450;2023-07-29T08:43:29;20.40;1.00
19292;DHT22;9779;51.756;7.450;2023-07-29T08:46:03;20.50;1.00
19292;DHT22;9779;51.756;7.450;2023-07-29T08:48:40;20.50;1.00
19292;DHT22;9779;51.756;7.450;2023-07-29T08:51:08;20.60;1.00
19292;DHT22;9779;51.756;7.450;2023-07-29T08:53:38;20.60;1.00
19292;DHT22;9779;51.756;7.450;2023-07-29T08:56:05;20.60;1.00
19292;DHT22;9779;51.756;7.450;2023-07-29T08:58:31;20.70;1.00
19292;DHT22;9779;51.756;7.450;2023-07-29T09:01:03;20.60;1.00
19292;DHT22;9779;51.756;7.450;2023-07-29T09:03:28;20.80;1.00
19292;DHT22;9779;51.756;7.450;2023-07-29T09:05:55;20.80;1.00
19292;DHT22;9779;51.756;7.450;2023-07-29T09:08:29;21.00;1.00
19292;DHT22;9779;51.756;7.450;2023-07-29T09:10:55;21.00;1.00
19292;DHT22;9779;51.756;7.450;2023-07-29T09:13:21;21.10;1.00
19292;DHT22;9779;51.756;7.450;2023-07-29T09:15:57;21.30;1.00
19292;DHT22;9779;51.756;7.450;2023-07-29T09:18:29;21.30;1.00
19292;DHT22;9779;51.756;7.450;2023-07-29T09:21:01;21.10;99.90
19292;DHT22;9779;51.756;7.450;2023-07-29T09:23:27;21.20;1.00
19292;DHT22;9779;51.756;7.450;2023-07-29T09:26:03;21.40;1.00
19292;DHT22;9779;51.756;7.450;2023-07-29T09:28:37;21.50;1.00
19292;DHT22;9779;51.756;7.450;2023-07-29T09:31:04;21.40;99.90
19292;DHT22;9779;51.756;7.450;2023-07-29T09:33:39;21.50;1.00
19292;DHT22;9779;51.756;7.450;2023-07-29T09:36:09;21.60;99.90
19292;DHT22;9779;51.756;7.450;2023-07-29T09:38:35;21.70;99.90
19292;DHT22;9779;51.756;7.450;2023-07-29T09:41:01;21.70;99.90
19292;DHT22;9779;51.756;7.450;2023-07-29T09:43:34;21.70;99.90
19292;DHT22;9779;51.756;7.450;2023-07-29T09:46:01;21.70;99.90
19292;DHT22;9779;51.756;7.450;2023-07-29T09:48:27;21.70;99.90
19292;DHT22;9779;51.756;7.450;2023-07-29T09:50:57;21.70;99.90
19292;DHT22;9779;51.756;7.450;2023-07-29T09:53:22;21.70;15.40
19292;DHT22;9779;51.756;7.450;2023-07-29T09:55:49;21.80;1.00
19292;DHT22;9779;51.756;7.450;2023-07-29T09:58:26;21.90;99.90
19292;DHT22;9779;51.756;7.450;2023-07-29T10:00:52;21.90;99.90
19292;DHT22;9779;51.756;7.450;2023-07-29T10:03:20;22.10;99.90
19292;DHT22;9779;51.756;7.450;2023-07-29T10:05:46;22.20;99.90
19292;DHT22;9779;51.756;7.450;2023-07-29T10:08:19;22.30;1.00
19292;DHT22;9779;51.756;7.450;2023-07-29T10:10:45;22.20;1.00
19292;DHT22;9779;51.756;7.450;2023-07-29T10:13:12;22.20;99.90
19292;DHT22;9779;51.756;7.450;2023-07-29T10:15:45;22.20;1.00
19292;DHT22;9779;51.756;7.450;2023-07-29T10:18:12;22.20;1.00
19292;DHT22;9779;51.756;7.450;2023-07-29T10:20:44;22.30;1.00
19292;DHT22;9779;51.756;7.450;2023-07-29T10:23:10;22.30;1.00
19292;DHT22;9779;51.756;7.450;2023-07-29T10:25:47;22.30;99.90
19292;DHT22;9779;51.756;7.450;2023-07-29T10:28:25;22.30;99.90
19292;DHT22;9779;51.756;7.450;2023-07-29T10:30:54;22.20;1.00
19292;DHT22;9779;51.756;7.450;2023-07-29T10:33:21;22.10;1.00
19292;DHT22;9779;51.756;7.450;2023-07-29T10:35:47;22.00;99.90
19292;DHT22;9779;51.756;7.450;2023-07-29T10:38:13;22.00;99.90
19292;DHT22;9779;51.756;7.450;2023-07-29T10:40:50;22.00;99.90
19292;DHT22;9779;51.756;7.450;2023-07-29T10:43:27;22.20;99.90
19292;DHT22;9779;51.756;7.450;2023-07-29T10:46:23;22.30;99.90
19292;DHT22;9779;51.756;7.450;2023-07-29T10:48:58;22.50;99.90
19292;DHT22;9779;51.756;7.450;2023-07-29T10:51:37;22.90;99.90
19292;DHT22;9779;51.756;7.450;2023-07-29T10:54:10;22.80;99.90
19292;DHT22;9779;51.756;7.450;2023-07-29T10:56:37;22.80;1.00
19292;DHT22;9779;51.756;7.450;2023-07-29T11:01:58;23.00;99.90
19292;DHT22;9779;51.756;7.450;2023-07-29T11:04:26;23.20;1.00
19292;DHT22;9779;51.756;7.450;2023-07-29T11:10:03;23.50;99.90
19292;DHT22;9779;51.756;7.450;2023-07-29T11:15:05;23.70;99.90
19292;DHT22;9779;51.756;7.450;2023-07-29T11:17:58;23.60;99.90
19292;DHT22;9779;51.756;7.450;2023-07-29T11:20:30;23.40;1.00
19292;DHT22;9779;51.756;7.450;2023-07-29T11:23:02;23.70;99.90
19292;DHT22;9779;51.756;7.450;2023-07-29T11:25:29;23.90;99.90
19292;DHT22;9779;51.756;7.450;2023-07-29T11:27:57;23.90;99.90
19292;DHT22;9779;51.756;7.450;2023-07-29T11:30:23;24.10;99.90
19292;DHT22;9779;51.756;7.450;2023-07-29T11:32:53;24.00;1.00
19292;DHT22;9779;51.756;7.450;2023-07-29T11:35:21;24.00;99.90
19292;DHT22;9779;51.756;7.450;2023-07-29T11:37:51;23.70;1.00
19292;DHT22;9779;51.756;7.450;2023-07-29T11:40:23;23.60;1.00
19292;DHT22;9779;51.756;7.450;2023-07-29T11:42:51;23.50;25.70
19292;DHT22;9779;51.756;7.450;2023-07-29T11:45:17;23.40;1.00
19292;DHT22;9779;51.756;7.450;2023-07-29T11:47:43;23.20;1.00
19292;DHT22;9779;51.756;7.450;2023-07-29T11:50:11;23.20;99.90
19292;DHT22;9779;51.756;7.450;2023-07-29T11:52:46;23.20;99.90
19292;DHT22;9779;51.756;7.450;2023-07-29T11:55:13;23.30;1.00
19292;DHT22;9779;51.756;7.450;2023-07-29T11:57:41;23.20;99.90
19292;DHT22;9779;51.756;7.450;2023-07-29T12:00:13;23.60;1.00
19292;DHT22;9779;51.756;7.450;2023-07-29T12:02:42;23.90;99.90
19292;DHT22;9779;51.756;7.450;2023-07-29T12:05:14;24.00;99.90
19292;DHT22;9779;51.756;7.450;2023-07-29T12:07:42;24.40;1.00
19292;DHT22;9779;51.756;7.450;2023-07-29T12:10:14;24.50;99.90
19292;DHT22;9779;51.756;7.450;2023-07-29T12:12:49;24.90;1.00
19292;DHT22;9779;51.756;7.450;2023-07-29T12:15:28;25.10;1.00
19292;DHT22;9779;51.756;7.450;2023-07-29T12:17:58;25.20;1.00
19292;DHT22;9779;51.756;7.450;2023-07-29T12:20:24;25.20;1.00
19292;DHT22;9779;51.756;7.450;2023-07-29T12:23:09;25.20;1.00
19292;DHT22;9779;51.756;7.450;2023-07-29T12:25:35;25.20;99.90
19292;DHT22;9779;51.756;7.450;2023-07-29T12:28:05;25.00;1.00
19292;DHT22;9779;51.756;7.450;2023-07-29T12:30:42;25.00;1.00
19292;DHT22;9779;51.756;7.450;2023-07-29T12:33:08;24.70;1.00
19292;DHT22;9779;51.756;7.450;2023-07-29T12:35:38;24.50;1.00
19292;DHT22;9779;51.756;7.450;2023-07-29T12:38:05;24.20;1.00
19292;DHT22;9779;51.756;7.450;2023-07-29T12:40:38;24.20;1.00
19292;DHT22;9779;51.756;7.450;2023-07-29T12:43:03;24.50;1.00
19292;DHT22;9779;51.756;7.450;2023-07-29T12:45:35;24.60;99.90
19292;DHT22;9779;51.756;7.450;2023-07-29T12:48:01;24.80;14.80
19292;DHT22;9779;51.756;7.450;2023-07-29T12:50:26;24.70;1.00
19292;DHT22;9779;51.756;7.450;2023-07-29T12:52:52;24.60;1.00
19292;DHT22;9779;51.756;7.450;2023-07-29T12:55:18;24.60;99.90
19292;DHT22;9779;51.756;7.450;2023-07-29T12:57:46;24.40;17.80
19292;DHT22;9779;51.756;7.450;2023-07-29T13:00:12;24.10;1.00
19292;DHT22;9779;51.756;7.450;2023-07-29T13:02:38;24.10;99.90
19292;DHT22;9779;51.756;7.450;2023-07-29T13:05:04;24.10;47.60
19292;DHT22;9779;51.756;7.450;2023-07-29T13:07:30;24.10;99.90
19292;DHT22;9779;51.756;7.450;2023-07-29T13:10:01;24.00;1.00
19292;DHT22;9779;51.756;7.450;2023-07-29T13:12:28;24.10;1.00
19292;DHT22;9779;51.756;7.450;2023-07-29T13:14:54;24.50;99.90
19292;DHT22;9779;51.756;7.450;2023-07-29T13:17:22;24.60;99.90
19292;DHT22;9779;51.756;7.450;2023-07-29T13:19:49;24.90;1.00
19292;DHT22;9779;51.756;7.450;2023-07-29T13:22:17;25.20;1.00
19292;DHT22;9779;51.756;7.450;2023-07-29T13:24:46;25.50;1.00
19292;DHT22;9779;51.756;7.450;2023-07-29T13:27:12;26.00;99.90
19292;DHT22;9779;51.756;7.450;2023-07-29T13:29:38;26.10;1.00
19292;DHT22;9779;51.756;7.450;2023-07-29T13:32:05;26.20;1.00
19292;DHT22;9779;51.756;7.450;2023-07-29T13:34:31;26.30;99.90
19292;DHT22;9779;51.756;7.450;2023-07-29T13:36:56;26.10;99.90
19292;DHT22;9779;51.756;7.450;2023-07-29T13:39:22;25.80;1.00
19292;DHT22;9779;51.756;7.450;2023-07-29T13:41:48;25.60;99.90
19292;DHT22;9779;51.756;7.450;2023-07-29T13:44:13;25.40;1.00
19292;DHT22;9779;51.756;7.450;2023-07-29T13:46:39;25.30;99.90
19292;DHT22;9779;51.756;7.450;2023-07-29T13:49:05;25.10;99.90
19292;DHT22;9779;51.756;7.450;2023-07-29T13:51:36;25.00;99.90
19292;DHT22;9779;51.756;7.450;2023-07-29T13:54:02;25.10;1.70
19292;DHT22;9779;51.756;7.450;2023-07-29T13:56:27;25.00;99.90
19292;DHT22;9779;51.756;7.450;2023-07-29T13:58:53;24.90;1.00
19292;DHT22;9779;51.756;7.450;2023-07-29T14:01:18;24.50;1.00
19292;DHT22;9779;51.756;7.450;2023-07-29T14:03:47;24.30;1.00
19292;DHT22;9779;51.756;7.450;2023-07-29T14:06:13;24.20;1.00
19292;DHT22;9779;51.756;7.450;2023-07-29T14:08:38;24.00;1.00
19292;DHT22;9779;51.756;7.450;2023-07-29T14:11:06;23.80;1.00
19292;DHT22;9779;51.756;7.450;2023-07-29T14:13:34;23.60;1.00
19292;DHT22;9779;51.756;7.450;2023-07-29T14:16:03;23.60;99.90
19292;DHT22;9779;51.756;7.450;2023-07-29T14:18:30;23.40;99.90
19292;DHT22;9779;51.756;7.450;2023-07-29T14:20:59;23.00;99.90
19292;DHT22;9779;51.756;7.450;2023-07-29T14:23:27;22.20;8.80
19292;DHT22;9779;51.756;7.450;2023-07-29T14:25:52;21.60;1.00
19292;DHT22;9779;51.756;7.450;2023-07-29T14:28:18;20.90;1.00
19292;DHT22;9779;51.756;7.450;2023-07-29T14:30:43;20.60;1.00
19292;DHT22;9779;51.756;7.450;2023-07-29T14:33:10;20.40;1.00
19292;DHT22;9779;51.756;7.450;2023-07-29T14:35:36;20.30;1.00
19292;DHT22;9779;51.756;7.450;2023-07-29T14:38:02;20.10;1.00
19292;DHT22;9779;51.756;7.450;2023-07-29T14:40:27;20.00;1.00
19292;DHT22;9779;51.756;7.450;2023-07-29T14:42:53;20.10;1.00
19292;DHT22;9779;51.756;7.450;2023-07-29T14:45:22;20.20;1.00
19292;DHT22;9779;51.756;7.450;2023-07-29T14:47:48;20.20;1.00
19292;DHT22;9779;51.756;7.450;2023-07-29T14:50:13;20.40;5.60
19292;DHT22;9779;51.756;7.450;2023-07-29T14:52:39;20.50;4.50
19292;DHT22;9779;51.756;7.450;2023-07-29T14:55:05;20.50;1.00
19292;DHT22;9779;51.756;7.450;2023-07-29T14:57:31;20.60;1.00
19292;DHT22;9779;51.756;7.450;2023-07-29T15:00:00;20.60;1.00
19292;DHT22;9779;51.756;7.450;2023-07-29T15:02:28;20.50;15.70
19292;DHT22;9779;51.756;7.450;2023-07-29T15:04:54;20.50;22.60
19292;DHT22;9779;51.756;7.450;2023-07-29T15:07:19;20.50;22.10
19292;DHT22;9779;51.756;7.450;2023-07-29T15:09:47;20.30;29.70
19292;DHT22;9779;51.756;7.450;2023-07-29T15:12:13;20.30;36.90
19292;DHT22;9779;51.756;7.450;2023-07-29T15:14:38;20.30;74.80
19292;DHT22;9779;51.756;7.450;2023-07-29T15:17:04;20.40;77.40
19292;DHT22;9779;51.756;7.450;2023-07-29T15:19:31;20.40;99.90
19292;DHT22;9779;51.756;7.450;2023-07-29T15:21:57;20.50;99.90
19292;DHT22;9779;51.756;7.450;2023-07-29T15:24:25;20.60;99.90
19292;DHT22;9779;51.756;7.450;2023-07-29T15:26:51;20.80;99.90
19292;DHT22;9779;51.756;7.450;2023-07-29T15:29:18;20.90;99.90
19292;DHT22;9779;51.756;7.450;2023-07-29T15:31:47;21.30;99.90
19292;DHT22;9779;51.756;7.450;2023-07-29T15:34:13;21.80;99.90
19292;DHT22;9779;51.756;7.450;2023-07-29T15:36:38;22.20;54.30
19292;DHT22;9779;51.756;7.450;2023-07-29T15:39:04;22.40;1.00
19292;DHT22;9779;51.756;7.450;2023-07-29T15:41:33;22.80;4.60
19292;DHT22;9779;51.756;7.450;2023-07-29T15:44:01;22.80;1.00
19292;DHT22;9779;51.756;7.450;2023-07-29T15:46:27;23.10;1.00
19292;DHT22;9779;51.756;7.450;2023-07-29T15:48:52;23.30;1.00
19292;DHT22;9779;51.756;7.450;2023-07-29T15:51:18;23.50;1.00
19292;DHT22;9779;51.756;7.450;2023-07-29T15:53:43;23.70;1.00
19292;DHT22;9779;51.756;7.450;2023-07-29T15:56:12;23.90;1.00
19292;DHT22;9779;51.756;7.450;2023-07-29T15:58:37;23.90;1.00
19292;DHT22;9779;51.756;7.450;2023-07-29T16:01:04;24.10;1.00
19292;DHT22;9779;51.756;7.450;2023-07-29T16:03:29;24.30;1.00
19292;DHT22;9779;51.756;7.450;2023-07-29T16:05:55;24.40;1.00
19292;DHT22;9779;51.756;7.450;2023-07-29T16:08:27;24.30;1.00
19292;DHT22;9779;51.756;7.450;2023-07-29T16:10:53;24.40;1.00
19292;DHT22;9779;51.756;7.450;2023-07-29T16:13:18;24.50;1.00
19292;DHT22;9779;51.756;7.450;2023-07-29T16:15:45;24.50;1.00
19292;DHT22;9779;51.756;7.450;2023-07-29T16:18:11;24.50;1.00